Time;durP1;ratioP1;P1;durP2;ratioP2;P2;SDS_P1;SDS_P2;PMS_P1;PMS_P2;Temp;Humidity;BMP_temperature;BMP_pressure;BME280_temperature;BME280_humidity;BME280_pressure;Samples;Min_cycle;Max_cycle;Signal;HPM_P1;HPM_P2
2023/09/06 00:00:29;;;;;;;37.58;30.73;;;19.60;99.90;;;;;;4993580;28;20657;-70
2023/09/06 00:02:57;;;;;;;39.83;30.80;;;19.60;99.90;;;;;;4995691;28;20696;-70
2023/09/06 00:05:23;;;;;;;36.85;29.95;;;19.60;99.90;;;;;;4996257;28;20185;-69
2023/09/06 00:07:49;;;;;;;46.30;31.95;;;19.60;99.90;;;;;;4996391;28;20227;-69
2023/09/06 00:10:15;;;;;;;38.28;31.55;;;19.50;99.90;;;;;;4995932;28;20189;-69
2023/09/06 00:12:42;;;;;;;38.15;31.35;;;19.50;99.90;;;;;;4989577;28;20208;-70
2023/09/06 00:15:09;;;;;;;40.22;31.00;;;19.50;99.90;;;;;;4993233;28;20599;-70
2023/09/06 00:17:37;;;;;;;39.78;31.52;;;19.50;99.90;;;;;;4993333;28;20720;-70
2023/09/06 00:22:45;;;;;;;37.08;30.60;;;19.50;99.90;;;;;;4993634;28;20192;-69
2023/09/06 00:25:11;;;;;;;35.78;30.05;;;19.40;99.90;;;;;;4995519;28;20204;-73
2023/09/06 00:27:37;;;;;;;38.20;31.35;;;19.40;99.90;;;;;;4993261;28;20224;-68
2023/09/06 00:30:03;;;;;;;38.00;32.00;;;19.40;99.90;;;;;;4994970;28;20213;-70
2023/09/06 00:32:29;;;;;;;37.90;31.23;;;19.40;99.90;;;;;;4989047;28;20177;-70
2023/09/06 00:34:55;;;;;;;42.70;30.98;;;19.40;99.90;;;;;;4994710;28;20263;-70
2023/09/06 00:37:21;;;;;;;38.58;32.03;;;19.30;99.90;;;;;;4994833;28;20203;-71
2023/09/06 00:39:48;;;;;;;38.08;30.98;;;19.30;99.90;;;;;;4990125;28;20224;-69
2023/09/06 00:42:14;;;;;;;41.17;31.60;;;19.30;99.90;;;;;;4993533;28;20224;-70
2023/09/06 00:44:40;;;;;;;38.90;31.63;;;19.30;99.90;;;;;;4992480;28;20220;-70
2023/09/06 00:47:06;;;;;;;41.35;31.75;;;19.30;99.90;;;;;;4993271;28;20593;-70
2023/09/06 00:49:32;;;;;;;40.40;32.92;;;19.20;99.90;;;;;;4986814;28;20292;-70
2023/09/06 00:51:58;;;;;;;41.20;32.80;;;19.20;99.90;;;;;;4993841;28;20673;-70
2023/09/06 00:54:24;;;;;;;43.47;32.65;;;19.20;99.90;;;;;;4988683;28;20181;-70
2023/09/06 00:56:50;;;;;;;41.78;33.58;;;19.20;99.90;;;;;;4994194;28;20613;-70
2023/09/06 00:59:21;;;;;;;42.03;34.13;;;19.10;99.90;;;;;;4988017;28;20666;-71
2023/09/06 01:01:47;;;;;;;40.63;33.47;;;19.10;99.90;;;;;;4994048;28;20185;-70
2023/09/06 01:04:13;;;;;;;42.53;35.53;;;19.10;99.90;;;;;;5012267;28;20185;-70
2023/09/06 01:06:41;;;;;;;43.72;34.28;;;19.10;99.90;;;;;;4993803;28;20192;-70
2023/09/06 01:09:07;;;;;;;50.70;36.15;;;19.10;99.90;;;;;;5019652;28;20243;-70
2023/09/06 01:11:37;;;;;;;48.58;36.72;;;19.00;99.90;;;;;;4993723;28;20189;-71
2023/09/06 01:14:03;;;;;;;46.63;37.30;;;19.00;99.90;;;;;;4991264;28;20196;-70
2023/09/06 01:16:45;;;;;;;48.97;38.45;;;19.00;99.90;;;;;;4991465;28;20189;-71
2023/09/06 01:19:18;;;;;;;49.08;38.58;;;19.00;99.90;;;;;;4991886;28;20263;-70
2023/09/06 01:21:52;;;;;;;50.50;38.47;;;19.00;99.90;;;;;;4992033;28;20268;-71
2023/09/06 01:24:19;;;;;;;46.10;37.88;;;18.90;99.90;;;;;;4985532;28;20201;-71
2023/09/06 01:26:46;;;;;;;48.42;38.67;;;18.90;99.90;;;;;;4987252;28;20201;-69
2023/09/06 01:29:12;;;;;;;45.35;38.83;;;18.90;99.90;;;;;;4992676;28;20221;-70
2023/09/06 01:31:38;;;;;;;46.83;39.65;;;18.90;99.90;;;;;;4992526;28;20185;-70
2023/09/06 01:34:03;;;;;;;47.55;39.03;;;18.90;99.90;;;;;;4990434;28;20902;-70
2023/09/06 01:36:30;;;;;;;48.83;39.58;;;18.80;99.90;;;;;;4972660;28;20275;-69
2023/09/06 01:38:55;;;;;;;49.88;39.08;;;18.80;99.90;;;;;;5016264;28;20297;-71
2023/09/06 01:41:21;;;;;;;54.70;41.22;;;18.80;99.90;;;;;;4993092;28;20181;-70
2023/09/06 01:43:53;;;;;;;50.17;40.47;;;18.80;99.90;;;;;;4983337;28;20202;-70
2023/09/06 01:46:22;;;;;;;50.20;40.53;;;18.70;99.90;;;;;;4988916;28;20186;-68
2023/09/06 01:48:49;;;;;;;48.40;39.60;;;18.70;99.90;;;;;;4989840;28;20649;-71
2023/09/06 01:51:15;;;;;;;52.00;39.72;;;18.70;99.90;;;;;;4989758;28;20193;-69
2023/09/06 01:53:42;;;;;;;49.45;40.50;;;18.70;99.90;;;;;;4988181;28;20200;-70
2023/09/06 01:56:08;;;;;;;48.22;38.28;;;18.70;99.90;;;;;;4989198;28;20564;-71
2023/09/06 01:58:37;;;;;;;51.03;37.50;;;18.60;99.90;;;;;;4986533;28;20189;-70
2023/09/06 02:01:09;;;;;;;47.33;38.63;;;18.60;99.90;;;;;;4987749;28;20177;-71
2023/09/06 02:03:35;;;;;;;49.10;38.42;;;18.60;99.90;;;;;;4988381;28;20177;-69
2023/09/06 02:06:03;;;;;;;44.72;36.75;;;18.60;99.90;;;;;;4989040;28;20271;-70
2023/09/06 02:08:29;;;;;;;48.65;37.85;;;18.50;99.90;;;;;;4970074;28;20257;-71
2023/09/06 02:10:55;;;;;;;45.88;36.03;;;18.50;99.90;;;;;;4989600;28;20649;-71
2023/09/06 02:13:21;;;;;;;46.90;36.13;;;18.50;99.90;;;;;;4996162;28;20196;-70
2023/09/06 02:15:47;;;;;;;49.15;36.35;;;18.50;99.90;;;;;;4988522;28;20189;-71
2023/09/06 02:18:15;;;;;;;43.17;35.05;;;18.50;99.90;;;;;;4979918;28;20653;-69
2023/09/06 02:20:41;;;;;;;43.78;34.83;;;18.50;99.90;;;;;;4988883;28;20649;-70
2023/09/06 02:23:08;;;;;;;43.53;33.67;;;18.40;99.90;;;;;;4987852;28;20185;-70
2023/09/06 02:25:34;;;;;;;43.67;34.53;;;18.40;99.90;;;;;;4995978;28;20197;-71
2023/09/06 02:28:04;;;;;;;40.83;33.95;;;18.40;99.90;;;;;;4994777;28;20268;-70
2023/09/06 02:30:37;;;;;;;40.45;33.25;;;18.40;99.90;;;;;;4988430;28;20185;-70
2023/09/06 02:33:04;;;;;;;43.60;32.22;;;18.40;99.90;;;;;;4985973;28;20272;-71
2023/09/06 02:35:34;;;;;;;41.53;33.83;;;18.40;99.90;;;;;;4984434;28;20197;-70
2023/09/06 02:38:00;;;;;;;42.53;32.55;;;18.40;99.90;;;;;;4981189;28;20276;-70
2023/09/06 02:40:26;;;;;;;41.50;32.22;;;18.30;99.90;;;;;;4986823;28;20213;-71
2023/09/06 02:42:53;;;;;;;41.70;31.55;;;18.30;99.90;;;;;;4985657;28;20199;-71
2023/09/06 02:45:22;;;;;;;38.83;31.00;;;18.30;99.90;;;;;;4992155;28;20189;-71
2023/09/06 02:47:50;;;;;;;39.97;31.48;;;18.30;99.90;;;;;;4989428;28;20190;-70
2023/09/06 02:50:23;;;;;;;40.15;30.63;;;18.30;99.90;;;;;;5018085;28;20188;-70
2023/09/06 02:52:52;;;;;;;36.15;29.25;;;18.30;99.90;;;;;;4985017;28;20178;-71
2023/09/06 02:55:18;;;;;;;36.20;29.05;;;18.30;99.90;;;;;;5003311;28;20189;-75
2023/09/06 02:57:44;;;;;;;42.13;29.67;;;18.20;99.90;;;;;;4990717;28;20189;-70
2023/09/06 03:00:29;;;;;;;42.42;30.30;;;18.20;99.90;;;;;;4989449;28;20758;-71
2023/09/06 03:03:04;;;;;;;33.47;28.42;;;18.20;99.90;;;;;;5014262;28;20196;-70
2023/09/06 03:05:32;;;;;;;36.15;29.50;;;18.20;99.90;;;;;;4991664;28;20246;-71
2023/09/06 03:07:59;;;;;;;38.05;29.33;;;18.10;99.90;;;;;;4987494;28;20739;-71
2023/09/06 03:10:32;;;;;;;38.35;29.88;;;18.10;99.90;;;;;;5006684;28;20236;-71
2023/09/06 03:12:59;;;;;;;36.88;28.75;;;18.10;99.90;;;;;;4986017;28;20241;-72
2023/09/06 03:15:30;;;;;;;35.90;28.38;;;18.10;99.90;;;;;;4989257;28;20712;-69
2023/09/06 03:18:01;;;;;;;37.38;28.50;;;18.10;99.90;;;;;;5020728;28;20268;-70
2023/09/06 03:20:33;;;;;;;37.70;27.55;;;18.10;99.90;;;;;;4990474;28;20267;-70
2023/09/06 03:23:17;;;;;;;34.65;27.98;;;18.10;99.90;;;;;;4986580;28;20217;-70
2023/09/06 03:25:54;;;;;;;37.63;28.05;;;18.00;99.90;;;;;;4984226;28;20231;-72
2023/09/06 03:28:21;;;;;;;35.63;27.55;;;18.00;99.90;;;;;;4985442;28;20182;-73
2023/09/06 03:30:48;;;;;;;37.85;28.75;;;18.00;99.90;;;;;;4987981;28;20189;-72
2023/09/06 03:33:15;;;;;;;39.30;27.98;;;18.00;99.90;;;;;;4987087;28;20195;-71
2023/09/06 03:35:45;;;;;;;35.50;28.35;;;17.90;99.90;;;;;;5019334;28;20197;-70
2023/09/06 03:38:17;;;;;;;36.47;28.48;;;17.90;99.90;;;;;;4961095;28;20190;-69
2023/09/06 03:40:46;;;;;;;33.17;27.95;;;17.90;99.90;;;;;;4986749;28;20208;-70
2023/09/06 03:43:15;;;;;;;34.95;28.50;;;17.90;99.90;;;;;;4984488;28;20655;-71
2023/09/06 03:45:44;;;;;;;35.70;29.90;;;17.80;99.90;;;;;;4990864;28;20276;-70
2023/09/06 03:48:12;;;;;;;42.17;30.90;;;17.80;99.90;;;;;;4988645;28;20216;-70
2023/09/06 03:50:39;;;;;;;38.67;30.85;;;17.80;99.90;;;;;;4994336;28;20545;-70
2023/09/06 03:53:05;;;;;;;39.70;30.52;;;17.80;99.90;;;;;;4991011;28;20190;-71
2023/09/06 03:55:34;;;;;;;41.58;31.30;;;17.70;99.90;;;;;;4991798;28;20709;-70
2023/09/06 03:58:07;;;;;;;38.15;29.65;;;17.70;99.90;;;;;;4987664;28;20300;-71
2023/09/06 04:00:39;;;;;;;40.25;29.88;;;17.70;99.90;;;;;;4992110;28;20294;-70
2023/09/06 04:03:23;;;;;;;34.80;28.70;;;17.70;99.90;;;;;;4991893;28;20189;-71
2023/09/06 04:05:53;;;;;;;39.42;30.42;;;17.70;99.90;;;;;;5001486;28;20193;-70
2023/09/06 04:08:21;;;;;;;39.42;29.02;;;17.70;99.90;;;;;;5024555;28;20604;-71
2023/09/06 04:10:51;;;;;;;36.05;28.65;;;17.60;99.90;;;;;;4991054;28;20189;-71
2023/09/06 04:13:17;;;;;;;38.67;29.60;;;17.60;99.90;;;;;;4991427;28;20280;-70
2023/09/06 04:15:44;;;;;;;33.45;27.85;;;17.60;99.90;;;;;;5024802;28;20654;-70
2023/09/06 04:18:11;;;;;;;36.33;27.83;;;17.60;99.90;;;;;;4990003;28;20216;-71
2023/09/06 04:20:46;;;;;;;35.35;27.45;;;17.60;99.90;;;;;;4990104;28;20227;-69
2023/09/06 04:23:13;;;;;;;34.13;26.63;;;17.50;99.90;;;;;;4992797;28;20201;-69
2023/09/06 04:25:44;;;;;;;34.55;26.88;;;17.50;99.90;;;;;;4993140;28;20201;-70
2023/09/06 04:28:16;;;;;;;31.63;25.70;;;17.50;99.90;;;;;;4974230;28;20182;-70
2023/09/06 04:30:47;;;;;;;34.95;25.92;;;17.50;99.90;;;;;;4970123;28;20302;-69
2023/09/06 04:33:15;;;;;;;32.80;25.60;;;17.50;99.90;;;;;;4992898;28;20181;-69
2023/09/06 04:36:03;;;;;;;34.40;24.48;;;17.50;99.90;;;;;;4988358;28;20209;-70
2023/09/06 04:38:31;;;;;;;34.50;25.52;;;17.40;99.90;;;;;;5007173;28;20186;-70
2023/09/06 04:41:02;;;;;;;34.17;25.27;;;17.40;99.90;;;;;;4992234;28;20189;-69
2023/09/06 04:43:33;;;;;;;31.90;24.08;;;17.40;99.90;;;;;;5020872;28;20681;-71
2023/09/06 04:46:00;;;;;;;31.15;24.45;;;17.40;99.90;;;;;;5024794;28;20228;-70
2023/09/06 04:48:29;;;;;;;29.13;23.02;;;17.30;99.90;;;;;;5023542;28;20202;-70
2023/09/06 04:50:59;;;;;;;33.33;22.30;;;17.40;99.90;;;;;;4987428;28;20221;-73
2023/09/06 04:53:27;;;;;;;29.80;21.65;;;17.40;99.90;;;;;;5004604;28;20650;-70
2023/09/06 04:55:54;;;;;;;28.33;22.33;;;17.40;99.90;;;;;;4992647;28;20213;-70
2023/09/06 04:58:24;;;;;;;33.95;21.30;;;17.30;99.90;;;;;;5022535;28;20190;-67
2023/09/06 05:00:50;;;;;;;34.08;21.13;;;17.30;99.90;;;;;;5023730;28;20227;-69
2023/09/06 05:03:22;;;;;;;26.13;21.85;;;17.30;99.90;;;;;;4985729;28;20513;-67
2023/09/06 05:05:53;;;;;;;34.60;22.33;;;17.30;99.90;;;;;;4982648;28;20189;-66
2023/09/06 05:08:20;;;;;;;29.63;22.45;;;17.30;99.90;;;;;;4989528;28;20225;-68
2023/09/06 05:10:51;;;;;;;27.70;21.95;;;17.30;99.90;;;;;;4996137;28;20832;-69
2023/09/06 05:13:18;;;;;;;27.80;21.08;;;17.30;99.90;;;;;;4996289;28;20213;-69
2023/09/06 05:15:44;;;;;;;32.63;21.15;;;17.30;99.90;;;;;;5000364;28;20276;-67
2023/09/06 05:18:12;;;;;;;31.25;22.10;;;17.30;99.90;;;;;;4987800;28;20194;-69
2023/09/06 05:20:40;;;;;;;29.23;21.30;;;17.30;99.90;;;;;;5021212;28;20277;-71
2023/09/06 05:23:12;;;;;;;27.58;21.80;;;17.30;99.90;;;;;;5001522;28;20186;-69
2023/09/06 05:25:39;;;;;;;30.85;22.00;;;17.30;99.90;;;;;;4975531;28;20670;-70
2023/09/06 05:28:09;;;;;;;28.92;20.20;;;17.40;99.90;;;;;;4989135;28;20553;-69
2023/09/06 05:30:45;;;;;;;25.85;19.08;;;17.40;99.90;;;;;;4992076;28;20181;-70
2023/09/06 05:33:15;;;;;;;29.42;20.27;;;17.40;99.90;;;;;;5016980;28;20199;-70
2023/09/06 05:35:43;;;;;;;25.05;18.73;;;17.40;99.90;;;;;;4994576;28;20554;-71
2023/09/06 05:38:11;;;;;;;25.35;18.63;;;17.40;99.90;;;;;;4987418;28;20193;-69
2023/09/06 05:40:43;;;;;;;20.73;17.38;;;17.50;99.90;;;;;;4990472;28;20228;-69
2023/09/06 05:43:13;;;;;;;23.88;16.77;;;17.50;99.90;;;;;;4988950;28;20641;-69
2023/09/06 05:45:40;;;;;;;22.02;16.13;;;17.50;99.90;;;;;;4988832;28;20185;-69
2023/09/06 05:48:07;;;;;;;24.30;16.00;;;17.60;99.90;;;;;;4989293;28;20265;-69
2023/09/06 05:50:34;;;;;;;22.23;15.63;;;17.60;99.90;;;;;;4992112;28;20193;-69
2023/09/06 05:53:00;;;;;;;24.08;15.15;;;17.70;99.90;;;;;;5021842;28;20202;-69
2023/09/06 05:55:28;;;;;;;20.23;15.20;;;17.70;99.90;;;;;;4987539;28;20181;-69
2023/09/06 05:57:54;;;;;;;19.63;14.85;;;17.80;99.90;;;;;;4988456;28;20526;-70
2023/09/06 06:00:21;;;;;;;18.67;14.35;;;17.80;99.90;;;;;;4992742;28;20213;-69
2023/09/06 06:02:55;;;;;;;21.67;14.30;;;17.80;99.90;;;;;;4990427;28;20196;-72
2023/09/06 06:05:22;;;;;;;19.10;14.02;;;17.90;99.90;;;;;;4987247;28;20215;-71
2023/09/06 06:07:48;;;;;;;22.70;13.27;;;18.00;99.90;;;;;;5004133;28;20264;-70
2023/09/06 06:10:14;;;;;;;22.23;12.98;;;18.00;99.90;;;;;;4991677;28;20213;-70
2023/09/06 06:12:41;;;;;;;16.45;12.95;;;18.10;99.90;;;;;;4989721;28;20197;-69
2023/09/06 06:15:14;;;;;;;23.63;12.95;;;18.20;99.90;;;;;;4989678;28;20247;-68
2023/09/06 06:17:41;;;;;;;17.83;11.73;;;18.20;99.90;;;;;;4989234;28;20212;-70
2023/09/06 06:20:09;;;;;;;18.88;12.52;;;18.30;99.90;;;;;;4992513;28;20213;-70
2023/09/06 06:22:39;;;;;;;17.27;12.13;;;18.30;99.90;;;;;;4989921;28;20189;-69
2023/09/06 06:25:07;;;;;;;17.75;12.07;;;18.40;99.90;;;;;;4985482;28;20376;-70
2023/09/06 06:27:33;;;;;;;19.15;11.57;;;18.50;99.90;;;;;;5023581;28;20216;-69
2023/09/06 06:29:59;;;;;;;21.20;11.27;;;18.60;99.90;;;;;;4981575;28;20277;-70
2023/09/06 06:32:26;;;;;;;15.52;11.07;;;18.70;99.90;;;;;;4991074;28;20189;-68
2023/09/06 06:34:54;;;;;;;16.80;10.57;;;18.70;99.90;;;;;;4986669;28;20245;-69
2023/09/06 06:37:21;;;;;;;19.60;11.07;;;18.80;99.90;;;;;;4987350;28;20193;-72
2023/09/06 06:39:48;;;;;;;17.92;10.73;;;18.90;99.90;;;;;;5002698;28;20291;-70
2023/09/06 06:42:14;;;;;;;19.45;10.65;;;18.90;99.90;;;;;;4988151;28;20979;-69
2023/09/06 06:44:46;;;;;;;18.52;10.38;;;19.00;99.90;;;;;;4993414;28;20268;-70
2023/09/06 06:47:13;;;;;;;16.52;10.07;;;19.10;99.90;;;;;;4991716;28;20304;-70
2023/09/06 06:49:39;;;;;;;15.07;10.15;;;19.20;99.90;;;;;;4986387;28;20670;-69
2023/09/06 06:52:04;;;;;;;19.95;9.93;;;19.20;99.90;;;;;;4981199;28;20280;-69
2023/09/06 06:54:31;;;;;;;18.02;9.90;;;19.30;99.90;;;;;;4984275;28;20254;-70
2023/09/06 06:56:57;;;;;;;14.27;9.38;;;19.30;99.90;;;;;;5007806;28;20273;-69
2023/09/06 06:59:23;;;;;;;15.88;9.70;;;19.40;99.90;;;;;;4989499;28;20644;-71
2023/09/06 07:01:49;;;;;;;16.17;9.88;;;19.50;99.90;;;;;;4984018;28;20197;-72
2023/09/06 07:04:15;;;;;;;14.02;10.48;;;19.50;99.90;;;;;;4986095;28;20266;-68
2023/09/06 07:06:41;;;;;;;19.13;12.73;;;19.60;99.90;;;;;;4987997;28;20192;-67
2023/09/06 07:09:07;;;;;;;16.10;9.85;;;19.70;99.90;;;;;;4987849;28;20796;-65
2023/09/06 07:11:33;;;;;;;15.18;10.23;;;19.80;99.90;;;;;;4990431;28;20197;-66
2023/09/06 07:13:59;;;;;;;11.90;8.63;;;19.80;99.90;;;;;;4988647;28;20280;-67
2023/09/06 07:16:25;;;;;;;15.30;9.73;;;19.80;99.90;;;;;;4990653;28;20211;-68
2023/09/06 07:18:51;;;;;;;14.05;9.73;;;19.90;99.90;;;;;;4984678;28;20272;-73
2023/09/06 07:21:18;;;;;;;13.40;8.88;;;20.00;99.90;;;;;;4992126;28;20554;-72
2023/09/06 07:23:45;;;;;;;10.90;8.50;;;20.10;99.90;;;;;;4994500;28;20197;-69
2023/09/06 07:26:11;;;;;;;12.45;9.05;;;20.20;99.90;;;;;;4995988;28;20216;-70
2023/09/06 07:28:39;;;;;;;18.05;12.27;;;20.30;99.90;;;;;;4991703;28;20554;-70
2023/09/06 07:31:08;;;;;;;14.52;8.23;;;20.30;99.90;;;;;;4993884;28;20220;-72
2023/09/06 07:33:35;;;;;;;13.65;9.30;;;20.40;99.90;;;;;;4993141;28;20638;-71
2023/09/06 07:36:01;;;;;;;15.05;9.88;;;20.50;99.90;;;;;;4990833;28;20204;-71
2023/09/06 07:38:27;;;;;;;16.70;9.38;;;20.60;99.90;;;;;;5024433;28;20185;-73
2023/09/06 07:41:07;;;;;;;14.95;8.52;;;20.60;99.90;;;;;;4995436;28;20228;-71
2023/09/06 07:43:36;;;;;;;13.02;7.20;;;20.70;99.90;;;;;;4992949;28;20193;-70
2023/09/06 07:46:06;;;;;;;12.90;6.85;;;20.80;99.90;;;;;;4990663;28;20761;-69
2023/09/06 07:48:32;;;;;;;10.65;6.88;;;20.90;99.90;;;;;;5021950;28;20239;-72
2023/09/06 07:50:59;;;;;;;9.18;6.32;;;21.00;99.90;;;;;;4988650;28;20268;-73
2023/09/06 07:53:26;;;;;;;10.32;6.45;;;21.10;99.90;;;;;;4995716;28;20177;-73
2023/09/06 07:55:53;;;;;;;11.68;6.72;;;21.10;99.90;;;;;;4995222;28;20189;-71
2023/09/06 07:58:20;;;;;;;13.93;7.40;;;21.20;99.90;;;;;;4989949;28;20608;-71
2023/09/06 08:00:47;;;;;;;14.95;6.45;;;21.30;99.90;;;;;;5008995;28;20229;-71
2023/09/06 08:03:14;;;;;;;7.60;5.78;;;21.40;99.90;;;;;;4988591;28;20193;-69
2023/09/06 08:05:40;;;;;;;9.82;6.25;;;21.50;99.90;;;;;;4994047;28;20320;-66
2023/09/06 08:08:11;;;;;;;13.75;6.80;;;21.60;99.90;;;;;;4991281;28;20261;-69
2023/09/06 08:10:39;;;;;;;10.95;6.10;;;21.60;99.90;;;;;;4994643;28;20189;-69
2023/09/06 08:13:05;;;;;;;11.05;5.63;;;21.70;99.90;;;;;;4986217;28;20590;-71
2023/09/06 08:15:32;;;;;;;7.25;5.57;;;21.80;99.90;;;;;;4991328;28;20193;-70
2023/09/06 08:17:59;;;;;;;9.10;6.18;;;21.80;99.90;;;;;;5001772;28;20270;-71
2023/09/06 08:20:25;;;;;;;10.43;5.50;;;21.90;99.90;;;;;;4989435;28;20685;-68
2023/09/06 08:22:51;;;;;;;7.68;5.05;;;22.00;99.90;;;;;;4992448;28;20639;-72
2023/09/06 08:25:18;;;;;;;13.20;5.28;;;22.10;99.90;;;;;;4990533;28;20209;-70
2023/09/06 08:27:45;;;;;;;7.15;4.60;;;22.20;99.90;;;;;;4992924;28;20177;-69
2023/09/06 08:30:13;;;;;;;8.07;5.32;;;22.30;99.90;;;;;;4989921;28;20260;-71
2023/09/06 08:32:40;;;;;;;7.60;4.65;;;22.30;99.90;;;;;;4992465;28;20189;-70
2023/09/06 08:35:07;;;;;;;9.93;5.43;;;22.40;99.90;;;;;;4999566;28;20272;-68
2023/09/06 08:37:36;;;;;;;7.40;4.50;;;22.50;99.90;;;;;;4993442;28;20236;-71
2023/09/06 08:40:05;;;;;;;7.72;4.68;;;22.60;99.90;;;;;;4990967;28;20217;-70
2023/09/06 08:42:35;;;;;;;10.52;4.60;;;22.70;99.90;;;;;;4992095;28;20276;-71
2023/09/06 08:45:05;;;;;;;14.82;5.57;;;22.80;99.90;;;;;;4992320;28;20190;-69
2023/09/06 08:47:32;;;;;;;14.38;6.10;;;22.80;99.90;;;;;;4992265;28;20184;-71
2023/09/06 08:49:59;;;;;;;5.00;4.25;;;22.90;99.90;;;;;;4985581;28;20645;-69
2023/09/06 08:52:26;;;;;;;5.90;4.35;;;22.90;99.90;;;;;;4989282;28;20177;-71
2023/09/06 08:54:52;;;;;;;7.22;4.03;;;23.10;99.90;;;;;;4980491;28;20193;-69
2023/09/06 08:57:22;;;;;;;41.40;7.57;;;23.20;99.90;;;;;;4993838;28;20189;-70
2023/09/06 08:59:49;;;;;;;7.63;3.97;;;23.20;99.90;;;;;;4988547;28;20213;-71
2023/09/06 09:02:16;;;;;;;5.95;3.53;;;23.30;99.90;;;;;;4990119;28;20190;-71
2023/09/06 09:04:42;;;;;;;10.00;4.00;;;23.40;99.90;;;;;;4988759;28;20265;-68
2023/09/06 09:07:10;;;;;;;23.35;4.03;;;23.40;99.90;;;;;;4991641;28;20185;-70
2023/09/06 09:09:56;;;;;;;7.55;3.47;;;23.50;99.90;;;;;;4988111;28;20237;-70
2023/09/06 09:12:26;;;;;;;6.13;3.70;;;23.60;99.90;;;;;;4990505;28;20653;-70
2023/09/06 09:14:54;;;;;;;7.38;4.80;;;23.70;99.90;;;;;;4987353;28;20186;-70
2023/09/06 09:17:24;;;;;;;5.35;3.63;;;23.80;99.90;;;;;;4985554;28;20269;-73
2023/09/06 09:19:59;;;;;;;6.72;3.78;;;23.80;99.90;;;;;;4989463;28;20224;-70
2023/09/06 09:22:27;;;;;;;5.75;3.70;;;23.90;99.90;;;;;;4992025;28;20181;-70
2023/09/06 09:24:58;;;;;;;8.18;3.50;;;24.00;99.90;;;;;;4989659;28;20194;-69
2023/09/06 09:27:27;;;;;;;7.57;3.70;;;24.00;99.90;;;;;;4993099;28;20189;-70
2023/09/06 09:29:54;;;;;;;6.20;3.63;;;24.10;99.90;;;;;;4979117;28;20178;-71
2023/09/06 09:32:20;;;;;;;10.93;3.60;;;24.20;99.90;;;;;;4990971;28;20268;-74
2023/09/06 09:34:47;;;;;;;17.35;3.50;;;24.30;99.90;;;;;;4990323;28;20269;-69
2023/09/06 09:37:13;;;;;;;9.15;3.53;;;24.40;99.90;;;;;;4983378;28;20284;-71
2023/09/06 09:39:39;;;;;;;12.45;4.00;;;24.50;99.90;;;;;;4991265;28;20227;-73
2023/09/06 09:42:09;;;;;;;5.18;3.38;;;24.50;99.90;;;;;;4992672;28;20240;-69
2023/09/06 09:44:35;;;;;;;8.30;4.00;;;24.60;99.90;;;;;;4986840;28;20209;-72
2023/09/06 09:47:13;;;;;;;8.90;3.63;;;24.70;99.90;;;;;;4992814;28;20669;-69
2023/09/06 09:49:41;;;;;;;7.45;3.30;;;24.80;99.90;;;;;;4984553;28;20193;-71
2023/09/06 09:52:11;;;;;;;8.05;3.42;;;24.90;99.90;;;;;;4992638;28;20189;-72
2023/09/06 09:54:47;;;;;;;7.60;3.50;;;25.00;99.90;;;;;;4986758;28;20185;-74
2023/09/06 09:57:14;;;;;;;9.57;3.30;;;25.10;99.90;;;;;;4988591;28;20185;-70
2023/09/06 09:59:42;;;;;;;11.05;4.25;;;25.20;99.90;;;;;;4990098;28;20221;-72
2023/09/06 10:02:15;;;;;;;14.50;4.10;;;25.20;99.90;;;;;;4991966;28;20281;-71
2023/09/06 10:04:42;;;;;;;8.70;3.70;;;25.30;99.90;;;;;;4987533;28;20269;-71
2023/09/06 10:07:11;;;;;;;7.40;4.03;;;25.40;99.90;;;;;;4985215;28;20194;-72
2023/09/06 10:09:39;;;;;;;5.68;2.90;;;25.50;99.90;;;;;;5019278;28;20291;-72
2023/09/06 10:12:11;;;;;;;5.93;3.10;;;25.60;99.90;;;;;;4992097;28;20177;-73
2023/09/06 10:14:42;;;;;;;8.27;3.30;;;25.70;99.90;;;;;;4985988;28;20238;-69
2023/09/06 10:17:09;;;;;;;18.95;3.47;;;25.70;99.90;;;;;;4991731;28;20213;-69
2023/09/06 10:19:40;;;;;;;5.63;2.65;;;25.80;99.90;;;;;;4988250;28;20720;-70
2023/09/06 10:22:12;;;;;;;10.60;3.28;;;25.90;99.90;;;;;;4984376;28;20265;-69
2023/09/06 10:24:39;;;;;;;5.72;3.10;;;26.00;99.90;;;;;;5019583;28;20665;-73
2023/09/06 10:27:12;;;;;;;5.35;3.17;;;26.00;99.90;;;;;;4991620;28;20711;-71
2023/09/06 10:29:54;;;;;;;5.03;2.63;;;26.00;99.90;;;;;;4987542;28;20197;-70
2023/09/06 10:32:22;;;;;;;8.52;3.58;;;26.20;99.90;;;;;;4991586;28;20243;-69
2023/09/06 10:35:18;;;;;;;7.65;3.00;;;26.20;99.90;;;;;;4987125;28;20243;-69
2023/09/06 10:38:02;;;;;;;4.60;3.10;;;26.30;99.90;;;;;;5001497;28;20255;-69
2023/09/06 10:40:47;;;;;;;12.18;4.07;;;26.30;99.90;;;;;;4987647;28;21186;-68
2023/09/06 10:43:14;;;;;;;6.85;3.42;;;26.40;99.90;;;;;;4984689;28;20185;-69
2023/09/06 10:45:40;;;;;;;8.48;3.17;;;26.50;99.90;;;;;;4992244;28;20187;-70
2023/09/06 10:48:10;;;;;;;5.00;2.72;;;26.60;99.90;;;;;;4989380;28;20295;-70
2023/09/06 10:50:36;;;;;;;4.35;2.78;;;26.60;99.90;;;;;;4987477;28;20196;-69
2023/09/06 10:53:03;;;;;;;9.20;2.78;;;26.60;99.90;;;;;;4986443;28;20209;-70
2023/09/06 10:55:43;;;;;;;5.10;2.70;;;26.70;99.90;;;;;;4984485;28;20225;-70
2023/09/06 10:58:10;;;;;;;6.10;2.88;;;26.70;99.90;;;;;;4987471;28;20184;-68
2023/09/06 11:00:37;;;;;;;3.67;2.83;;;26.80;99.90;;;;;;5003244;28;20681;-71
2023/09/06 11:03:13;;;;;;;9.77;2.97;;;26.90;99.90;;;;;;4988264;28;20185;-69
2023/09/06 11:05:50;;;;;;;9.77;3.03;;;26.90;99.90;;;;;;4987883;28;20236;-70
2023/09/06 11:08:25;;;;;;;4.43;2.97;;;26.90;99.90;;;;;;4986463;28;20240;-71
2023/09/06 11:10:57;;;;;;;5.03;2.88;;;27.00;99.90;;;;;;5004841;28;20259;-69
2023/09/06 11:13:29;;;;;;;5.57;3.13;;;27.10;99.90;;;;;;4985835;28;20185;-72
2023/09/06 11:15:55;;;;;;;4.65;2.78;;;27.10;99.70;;;;;;4989664;28;20542;-68
2023/09/06 11:18:21;;;;;;;8.63;2.92;;;27.20;99.20;;;;;;5020016;28;20181;-69
2023/09/06 11:20:49;;;;;;;6.60;2.53;;;27.20;98.70;;;;;;4990682;28;20652;-69
2023/09/06 11:23:18;;;;;;;6.50;2.60;;;27.30;98.20;;;;;;4987817;28;20801;-70
2023/09/06 11:25:45;;;;;;;5.95;3.10;;;27.30;97.60;;;;;;4989174;28;20200;-70
2023/09/06 11:28:19;;;;;;;5.35;2.85;;;27.40;97.30;;;;;;4989539;28;20185;-70
2023/09/06 11:30:47;;;;;;;7.85;3.60;;;27.40;96.90;;;;;;4996083;28;20188;-70
2023/09/06 11:33:16;;;;;;;4.93;2.90;;;27.50;96.90;;;;;;4988228;28;20186;-71
2023/09/06 11:35:48;;;;;;;6.95;3.70;;;27.50;96.70;;;;;;4986829;28;20717;-70
2023/09/06 11:38:16;;;;;;;4.28;2.60;;;27.60;96.80;;;;;;4973707;28;20276;-70
2023/09/06 11:40:44;;;;;;;5.80;2.85;;;27.60;96.50;;;;;;4986467;28;20220;-71
2023/09/06 11:43:13;;;;;;;5.22;2.80;;;27.70;96.20;;;;;;4986604;28;20185;-71
2023/09/06 11:45:43;;;;;;;5.35;2.58;;;27.70;95.90;;;;;;4984447;28;20247;-71
2023/09/06 11:48:09;;;;;;;5.22;2.80;;;27.80;95.60;;;;;;4981577;28;20554;-71
2023/09/06 11:50:38;;;;;;;5.30;2.70;;;27.80;95.50;;;;;;4991238;28;20208;-71
2023/09/06 11:53:09;;;;;;;8.13;3.00;;;27.80;95.50;;;;;;4986742;28;20700;-70
2023/09/06 11:55:42;;;;;;;3.15;2.75;;;27.90;95.40;;;;;;4988620;28;20272;-72
2023/09/06 11:58:21;;;;;;;5.15;2.88;;;27.90;95.40;;;;;;4987549;28;20213;-71
2023/09/06 12:00:48;;;;;;;5.05;2.60;;;27.90;95.20;;;;;;4990355;28;20255;-70
2023/09/06 12:03:16;;;;;;;4.47;2.58;;;28.00;95.00;;;;;;4986381;28;20649;-71
2023/09/06 12:05:46;;;;;;;10.45;3.10;;;28.00;94.70;;;;;;4985967;28;20677;-72
2023/09/06 12:08:19;;;;;;;9.02;2.70;;;28.10;94.90;;;;;;4984841;28;20259;-72
2023/09/06 12:10:50;;;;;;;4.10;2.65;;;28.10;94.70;;;;;;4990058;28;20547;-72
2023/09/06 12:13:19;;;;;;;4.05;2.72;;;28.20;94.60;;;;;;4988415;28;20613;-74
2023/09/06 12:15:45;;;;;;;5.22;2.80;;;28.20;94.10;;;;;;4993197;28;20180;-72
2023/09/06 12:18:13;;;;;;;5.55;2.75;;;28.30;93.60;;;;;;4992958;28;20271;-72
2023/09/06 12:20:39;;;;;;;2.90;2.35;;;28.30;93.30;;;;;;4993590;28;20220;-72
2023/09/06 12:23:05;;;;;;;3.95;2.47;;;28.40;93.30;;;;;;4992749;28;20719;-71
2023/09/06 12:25:31;;;;;;;5.25;2.50;;;28.40;92.60;;;;;;4986685;28;20185;-72
2023/09/06 12:27:57;;;;;;;11.18;2.38;;;28.50;92.10;;;;;;4990601;28;20188;-72
2023/09/06 12:30:23;;;;;;;7.30;2.70;;;28.50;92.10;;;;;;4984741;28;20191;-72
2023/09/06 12:32:50;;;;;;;12.43;5.72;;;28.50;92.00;;;;;;4993654;28;20200;-73
2023/09/06 12:35:17;;;;;;;6.95;2.67;;;28.60;91.80;;;;;;4990116;28;20192;-72
2023/09/06 12:37:42;;;;;;;5.05;2.80;;;28.60;91.50;;;;;;4991182;28;20209;-71
2023/09/06 12:40:10;;;;;;;5.35;2.95;;;28.60;91.70;;;;;;4989871;28;20248;-72
2023/09/06 12:42:40;;;;;;;5.20;2.50;;;28.70;91.60;;;;;;4990512;28;20211;-72